createdAt,value
2017-03-30T00:00:38.368Z,1019.02
2017-03-30T00:01:19.043Z,1019.01
2017-03-30T00:02:00.709Z,1019.02
2017-03-30T00:02:41.346Z,1019.02
2017-03-30T00:03:21.943Z,1019.04
2017-03-30T00:04:02.615Z,1019.01
2017-03-30T00:04:43.202Z,1019.02
2017-03-30T00:05:23.857Z,1019.03
2017-03-30T00:06:04.439Z,1019.03
2017-03-30T00:06:45.106Z,1019.04
2017-03-30T00:07:25.716Z,1019.02
2017-03-30T00:08:06.368Z,1019.01
2017-03-30T00:08:46.961Z,1019.01
2017-03-30T00:09:27.638Z,1019
2017-03-30T00:10:08.225Z,1019
2017-03-30T00:10:48.876Z,1018.99
2017-03-30T00:11:29.455Z,1018.98
2017-03-30T00:12:10.145Z,1018.95
2017-03-30T00:12:50.734Z,1018.98
2017-03-30T00:13:32.444Z,1018.99
2017-03-30T00:14:13.068Z,1018.95
2017-03-30T00:14:54.744Z,1018.99
2017-03-30T00:15:35.394Z,1018.97
2017-03-30T00:16:16.046Z,1018.96
2017-03-30T00:16:56.699Z,1018.95
2017-03-30T00:17:37.350Z,1018.92
2017-03-30T00:18:17.932Z,1018.94
2017-03-30T00:18:58.601Z,1018.94
2017-03-30T00:19:39.209Z,1018.98
2017-03-30T00:20:19.860Z,1018.91
2017-03-30T00:21:00.474Z,1018.93
2017-03-30T00:21:41.125Z,1018.9
2017-03-30T00:22:21.720Z,1018.93
2017-03-30T00:23:02.369Z,1018.94
2017-03-30T00:23:43.022Z,1018.91
2017-03-30T00:24:23.677Z,1018.91
2017-03-30T00:25:04.332Z,1018.87
2017-03-30T00:25:44.986Z,1018.92
2017-03-30T00:26:25.635Z,1018.91
2017-03-30T00:27:06.293Z,1018.9
2017-03-30T00:27:46.940Z,1018.86
2017-03-30T00:28:27.597Z,1018.86
2017-03-30T00:29:08.246Z,1018.86
2017-03-30T00:29:49.002Z,1018.83
2017-03-30T00:30:29.653Z,1018.82
2017-03-30T00:31:10.308Z,1018.84
2017-03-30T00:31:50.966Z,1018.86
2017-03-30T00:32:31.616Z,1018.86
2017-03-30T00:33:12.274Z,1018.87
2017-03-30T00:33:52.920Z,1018.87
2017-03-30T00:34:33.570Z,1018.89
2017-03-30T00:35:14.228Z,1018.86
2017-03-30T00:35:54.879Z,1018.87
2017-03-30T00:36:35.533Z,1018.87
2017-03-30T00:37:16.186Z,1018.84
2017-03-30T00:37:56.763Z,1018.86
2017-03-30T00:38:37.440Z,1018.89
2017-03-30T00:39:18.047Z,1018.85
2017-03-30T00:39:58.620Z,1018.87
2017-03-30T00:40:39.193Z,1018.86
2017-03-30T00:41:19.849Z,1018.89
2017-03-30T00:42:00.463Z,1018.85
2017-03-30T00:42:41.104Z,1018.87
2017-03-30T00:43:21.752Z,1018.85
2017-03-30T00:44:02.407Z,1018.88
2017-03-30T00:44:43.063Z,1018.84
2017-03-30T00:45:23.726Z,1018.87
2017-03-30T00:46:04.372Z,1018.84
2017-03-30T00:46:45.027Z,1018.84
2017-03-30T00:47:25.678Z,1018.86
2017-03-30T00:48:06.329Z,1018.84
2017-03-30T00:48:46.980Z,1018.88
2017-03-30T00:49:27.631Z,1018.87
2017-03-30T00:50:08.286Z,1018.86
2017-03-30T00:50:48.936Z,1018.84
2017-03-30T00:51:29.594Z,1018.87
2017-03-30T00:52:10.248Z,1018.79
2017-03-30T00:52:50.832Z,1018.85
2017-03-30T00:53:31.471Z,1018.83
2017-03-30T00:54:12.104Z,1018.82
2017-03-30T00:54:52.687Z,1018.82
2017-03-30T00:55:33.307Z,1018.82
2017-03-30T00:56:13.954Z,1018.8
2017-03-30T00:56:54.548Z,1018.82
2017-03-30T00:57:35.156Z,1018.82
2017-03-30T00:58:15.833Z,1018.79
2017-03-30T00:58:56.483Z,1018.77
2017-03-30T00:59:37.116Z,1018.74
2017-03-30T01:00:17.772Z,1018.79
2017-03-30T01:00:58.439Z,1018.81
2017-03-30T01:01:39.091Z,1018.77
2017-03-30T01:02:19.743Z,1018.76
2017-03-30T01:03:00.404Z,1018.79
2017-03-30T01:03:41.051Z,1018.78
2017-03-30T01:04:21.690Z,1018.79
2017-03-30T01:05:02.360Z,1018.78
2017-03-30T01:05:43.011Z,1018.79
2017-03-30T01:06:23.657Z,1018.78
2017-03-30T01:07:06.243Z,1018.83
2017-03-30T01:07:46.895Z,1018.81
2017-03-30T01:08:28.579Z,1018.79
2017-03-30T01:09:09.161Z,1018.84
2017-03-30T01:09:49.835Z,1018.85
2017-03-30T01:10:31.480Z,1018.82
2017-03-30T01:11:12.116Z,1018.83
2017-03-30T01:11:52.706Z,1018.83
2017-03-30T01:12:33.368Z,1018.82
2017-03-30T01:13:13.969Z,1018.8
2017-03-30T01:13:54.626Z,1018.81
2017-03-30T01:14:35.205Z,1018.78
2017-03-30T01:15:15.882Z,1018.8
2017-03-30T01:15:56.499Z,1018.78
2017-03-30T01:16:39.179Z,1018.79
2017-03-30T01:17:19.759Z,1018.77
2017-03-30T01:18:00.439Z,1018.79
2017-03-30T01:18:41.494Z,1018.75
2017-03-30T01:19:22.154Z,1018.77
2017-03-30T01:20:02.804Z,1018.75
2017-03-30T01:20:43.459Z,1018.78
2017-03-30T01:21:24.110Z,1018.76
2017-03-30T01:22:04.787Z,1018.8
2017-03-30T01:22:45.418Z,1018.78
2017-03-30T01:23:26.988Z,1018.75
2017-03-30T01:24:07.641Z,1018.73
2017-03-30T01:24:48.307Z,1018.75
2017-03-30T01:25:28.976Z,1018.79
2017-03-30T01:26:09.599Z,1018.79
2017-03-30T01:26:50.272Z,1018.81
2017-03-30T01:27:30.906Z,1018.8
2017-03-30T01:28:11.514Z,1018.79
2017-03-30T01:28:52.088Z,1018.84
2017-03-30T01:29:32.722Z,1018.8
2017-03-30T01:30:13.364Z,1018.81
2017-03-30T01:30:53.921Z,1018.85
2017-03-30T01:31:34.576Z,1018.81
2017-03-30T01:32:15.227Z,1018.85
2017-03-30T01:32:55.800Z,1018.83
2017-03-30T01:33:36.444Z,1018.81
2017-03-30T01:34:17.082Z,1018.81
2017-03-30T01:34:57.656Z,1018.79
2017-03-30T01:35:38.229Z,1018.79
2017-03-30T01:36:18.863Z,1018.79
2017-03-30T01:36:59.492Z,1018.79
2017-03-30T01:37:40.061Z,1018.77
2017-03-30T01:38:20.647Z,1018.77
2017-03-30T01:39:01.345Z,1018.78
2017-03-30T01:39:41.999Z,1018.78
2017-03-30T01:40:22.579Z,1018.78
2017-03-30T01:41:03.147Z,1018.75
2017-03-30T01:41:43.772Z,1018.78
2017-03-30T01:42:24.407Z,1018.75
2017-03-30T01:43:05.066Z,1018.79
2017-03-30T01:43:45.713Z,1018.76
2017-03-30T01:44:26.358Z,1018.74
2017-03-30T01:45:07.016Z,1018.72
2017-03-30T01:45:47.673Z,1018.73
2017-03-30T01:46:28.325Z,1018.74
2017-03-30T01:47:08.980Z,1018.75
2017-03-30T01:47:49.547Z,1018.72
2017-03-30T01:48:30.154Z,1018.76
2017-03-30T01:49:10.838Z,1018.74
2017-03-30T01:49:51.492Z,1018.76
2017-03-30T01:50:32.078Z,1018.73
2017-03-30T01:51:13.678Z,1018.76
2017-03-30T01:51:54.269Z,1018.75
2017-03-30T01:52:34.911Z,1018.73
2017-03-30T01:53:15.487Z,1018.71
2017-03-30T01:53:56.141Z,1018.76
2017-03-30T01:54:36.776Z,1018.71
2017-03-30T01:55:17.368Z,1018.74
2017-03-30T01:55:57.986Z,1018.75
2017-03-30T01:56:38.628Z,1018.74
2017-03-30T01:57:19.214Z,1018.72
2017-03-30T01:57:59.836Z,1018.74
2017-03-30T01:58:40.489Z,1018.78
2017-03-30T01:59:21.146Z,1018.75
2017-03-30T02:00:01.799Z,1018.75
2017-03-30T02:00:42.449Z,1018.78
2017-03-30T02:01:23.104Z,1018.78
2017-03-30T02:02:03.760Z,1018.78
2017-03-30T02:02:44.421Z,1018.76
2017-03-30T02:03:25.062Z,1018.79
2017-03-30T02:04:05.714Z,1018.78
2017-03-30T02:04:46.368Z,1018.79
2017-03-30T02:05:27.021Z,1018.76
2017-03-30T02:06:07.680Z,1018.79
2017-03-30T02:06:48.323Z,1018.79
2017-03-30T02:07:28.973Z,1018.78
2017-03-30T02:08:09.544Z,1018.83
2017-03-30T02:08:51.159Z,1018.83
2017-03-30T02:09:31.768Z,1018.88
2017-03-30T02:10:12.408Z,1018.84
2017-03-30T02:10:52.984Z,1018.87
2017-03-30T02:11:33.670Z,1018.86
2017-03-30T02:12:14.268Z,1018.84
2017-03-30T02:12:54.918Z,1018.89
2017-03-30T02:13:36.834Z,1018.88
2017-03-30T02:14:18.487Z,1018.89
2017-03-30T02:14:59.130Z,1018.82
2017-03-30T02:15:39.703Z,1018.86
2017-03-30T02:16:20.340Z,1018.88
2017-03-30T02:17:00.987Z,1018.87
2017-03-30T02:17:41.569Z,1018.85
2017-03-30T02:18:22.187Z,1018.88
2017-03-30T02:19:02.845Z,1018.9
2017-03-30T02:19:43.527Z,1018.9
2017-03-30T02:20:24.165Z,1018.91
2017-03-30T02:21:04.800Z,1018.92
2017-03-30T02:21:45.369Z,1018.89
2017-03-30T02:22:27.037Z,1018.9
2017-03-30T02:23:07.678Z,1018.88
2017-03-30T02:23:48.337Z,1018.87
2017-03-30T02:24:28.989Z,1018.86
2017-03-30T02:25:09.642Z,1018.86
2017-03-30T02:25:50.287Z,1018.9
2017-03-30T02:26:30.943Z,1018.88
2017-03-30T02:27:11.601Z,1018.88
2017-03-30T02:27:52.248Z,1018.8
2017-03-30T02:28:32.906Z,1018.88
2017-03-30T02:29:13.553Z,1018.85
2017-03-30T02:29:54.212Z,1018.83
2017-03-30T02:30:34.861Z,1018.85
2017-03-30T02:31:15.514Z,1018.85
2017-03-30T02:31:56.178Z,1018.82
2017-03-30T02:32:36.832Z,1018.86
2017-03-30T02:33:17.381Z,1018.84
2017-03-30T02:33:58.021Z,1018.85
2017-03-30T02:34:38.675Z,1018.83
2017-03-30T02:35:19.239Z,1018.83
2017-03-30T02:35:59.880Z,1018.81
2017-03-30T02:36:40.530Z,1018.83
2017-03-30T02:37:21.095Z,1018.84
2017-03-30T02:38:01.735Z,1018.83
2017-03-30T02:38:42.385Z,1018.85
2017-03-30T02:39:23.054Z,1018.83
2017-03-30T02:40:03.701Z,1018.82
2017-03-30T02:40:44.350Z,1018.83
2017-03-30T02:41:25.000Z,1018.8
2017-03-30T02:42:05.656Z,1018.87
2017-03-30T02:42:46.216Z,1018.86
2017-03-30T02:43:26.806Z,1018.86
2017-03-30T02:44:07.407Z,1018.84
2017-03-30T02:44:48.075Z,1018.83
2017-03-30T02:45:28.647Z,1018.88
2017-03-30T02:46:09.359Z,1018.87
2017-03-30T02:46:50.024Z,1018.88
2017-03-30T02:47:30.670Z,1018.86
2017-03-30T02:48:11.323Z,1018.86
2017-03-30T02:48:51.982Z,1018.87
2017-03-30T02:49:32.649Z,1018.87
2017-03-30T02:50:13.281Z,1018.89
2017-03-30T02:50:53.942Z,1018.86
2017-03-30T02:51:34.591Z,1018.84
2017-03-30T02:52:15.249Z,1018.88
2017-03-30T02:52:55.825Z,1018.88
2017-03-30T02:53:36.451Z,1018.88
2017-03-30T02:54:17.094Z,1018.9
2017-03-30T02:54:57.665Z,1018.88
2017-03-30T02:55:38.315Z,1018.91
2017-03-30T02:56:18.950Z,1018.89
2017-03-30T02:56:59.532Z,1018.88
2017-03-30T02:57:40.162Z,1018.9
2017-03-30T02:58:20.818Z,1018.88
2017-03-30T02:59:01.468Z,1018.91
2017-03-30T02:59:42.121Z,1018.89
2017-03-30T03:00:22.782Z,1018.92
2017-03-30T03:01:03.429Z,1018.88
2017-03-30T03:01:44.080Z,1018.9
2017-03-30T03:02:24.739Z,1018.87
2017-03-30T03:03:05.389Z,1018.88
2017-03-30T03:03:46.039Z,1018.88
2017-03-30T03:04:26.690Z,1018.88
2017-03-30T03:05:07.344Z,1018.87
2017-03-30T03:05:48.006Z,1018.86
2017-03-30T03:06:28.650Z,1018.87
2017-03-30T03:07:09.308Z,1018.89
2017-03-30T03:07:49.880Z,1018.9
2017-03-30T03:08:30.454Z,1018.86
2017-03-30T03:09:11.055Z,1018.86
2017-03-30T03:09:51.710Z,1018.86
2017-03-30T03:10:32.285Z,1018.89
2017-03-30T03:11:12.981Z,1018.85
2017-03-30T03:11:53.566Z,1018.87
2017-03-30T03:12:34.217Z,1018.84
2017-03-30T03:13:14.875Z,1018.85
2017-03-30T03:13:55.522Z,1018.87
2017-03-30T03:14:36.176Z,1018.87
2017-03-30T03:15:16.829Z,1018.86
2017-03-30T03:15:57.486Z,1018.88
2017-03-30T03:16:38.136Z,1018.91
2017-03-30T03:17:18.800Z,1018.89
2017-03-30T03:17:59.354Z,1018.92
2017-03-30T03:18:39.945Z,1018.9
2017-03-30T03:19:20.541Z,1018.86
2017-03-30T03:20:01.196Z,1018.88
2017-03-30T03:20:41.761Z,1018.88
2017-03-30T03:21:22.353Z,1018.89
2017-03-30T03:22:02.950Z,1018.89
2017-03-30T03:22:43.601Z,1018.87
2017-03-30T03:23:24.256Z,1018.88
2017-03-30T03:24:04.906Z,1018.85
2017-03-30T03:24:45.562Z,1018.86
2017-03-30T03:25:26.214Z,1018.88
2017-03-30T03:26:06.879Z,1018.88
2017-03-30T03:26:47.528Z,1018.88
2017-03-30T03:27:28.172Z,1018.9
2017-03-30T03:28:08.736Z,1018.88
2017-03-30T03:28:49.324Z,1018.85
2017-03-30T03:29:29.954Z,1018.82
2017-03-30T03:30:10.589Z,1018.87
2017-03-30T03:30:51.131Z,1018.88
2017-03-30T03:31:31.718Z,1018.84
2017-03-30T03:32:12.333Z,1018.83
2017-03-30T03:32:52.985Z,1018.86
2017-03-30T03:33:34.503Z,1018.81
2017-03-30T03:34:15.113Z,1018.84
2017-03-30T03:34:56.789Z,1018.83
2017-03-30T03:35:37.460Z,1018.83
2017-03-30T03:36:18.091Z,1018.84
2017-03-30T03:36:58.757Z,1018.81
2017-03-30T03:37:39.401Z,1018.82
2017-03-30T03:38:20.061Z,1018.83
2017-03-30T03:39:00.709Z,1018.83
2017-03-30T03:39:41.357Z,1018.84
2017-03-30T03:40:22.149Z,1018.84
2017-03-30T03:41:02.867Z,1018.81
2017-03-30T03:41:43.530Z,1018.78
2017-03-30T03:42:24.182Z,1018.82
2017-03-30T03:43:04.833Z,1018.83
2017-03-30T03:43:45.480Z,1018.8
2017-03-30T03:44:26.170Z,1018.82
2017-03-30T03:45:06.784Z,1018.81
2017-03-30T03:45:47.437Z,1018.8
2017-03-30T03:46:28.091Z,1018.79
2017-03-30T03:47:08.752Z,1018.8
2017-03-30T03:47:49.312Z,1018.79
2017-03-30T03:48:29.910Z,1018.83
2017-03-30T03:49:10.517Z,1018.8
2017-03-30T03:49:52.185Z,1018.82
2017-03-30T03:50:32.757Z,1018.8
2017-03-30T03:51:13.439Z,1018.78
2017-03-30T03:51:54.131Z,1018.79
2017-03-30T03:52:34.786Z,1018.79
2017-03-30T03:53:15.349Z,1018.79
2017-03-30T03:53:56.056Z,1018.78
2017-03-30T03:54:36.702Z,1018.79
2017-03-30T03:55:17.352Z,1018.76
2017-03-30T03:55:58.009Z,1018.76
2017-03-30T03:56:38.685Z,1018.77
2017-03-30T03:57:19.406Z,1018.77
2017-03-30T03:58:00.185Z,1018.78
2017-03-30T03:58:40.889Z,1018.78
2017-03-30T03:59:21.624Z,1018.78
2017-03-30T04:00:02.293Z,1018.8
2017-03-30T04:00:42.992Z,1018.77
2017-03-30T04:01:23.702Z,1018.77
2017-03-30T04:02:04.344Z,1018.77
2017-03-30T04:02:44.922Z,1018.8
2017-03-30T04:03:25.602Z,1018.78
2017-03-30T04:04:06.265Z,1018.79
2017-03-30T04:04:46.920Z,1018.76
2017-03-30T04:05:27.677Z,1018.77
2017-03-30T04:06:08.430Z,1018.79
2017-03-30T04:06:49.106Z,1018.77
2017-03-30T04:07:29.828Z,1018.79
2017-03-30T04:08:10.629Z,1018.78
2017-03-30T04:08:51.276Z,1018.81
2017-03-30T04:09:31.933Z,1018.82
2017-03-30T04:10:12.694Z,1018.81
2017-03-30T04:10:53.447Z,1018.81
2017-03-30T04:11:34.200Z,1018.8
2017-03-30T04:12:14.961Z,1018.84
2017-03-30T04:12:55.610Z,1018.8
2017-03-30T04:13:36.361Z,1018.81
2017-03-30T04:14:17.023Z,1018.81
2017-03-30T04:14:57.674Z,1018.78
2017-03-30T04:15:38.330Z,1018.82
2017-03-30T04:16:18.981Z,1018.81
2017-03-30T04:16:59.731Z,1018.82
2017-03-30T04:17:40.390Z,1018.76
2017-03-30T04:18:20.957Z,1018.79
2017-03-30T04:19:01.713Z,1018.78
2017-03-30T04:19:42.345Z,1018.79
2017-03-30T04:20:22.915Z,1018.79
2017-03-30T04:21:03.661Z,1018.78
2017-03-30T04:21:44.309Z,1018.76
2017-03-30T04:22:24.864Z,1018.77
2017-03-30T04:23:05.604Z,1018.77
2017-03-30T04:23:47.285Z,1018.78
2017-03-30T04:24:27.847Z,1018.73
2017-03-30T04:25:08.447Z,1018.77
2017-03-30T04:25:49.160Z,1018.78
2017-03-30T04:26:29.797Z,1018.79
2017-03-30T04:27:10.365Z,1018.73
2017-03-30T04:27:50.957Z,1018.77
2017-03-30T04:28:31.548Z,1018.77
2017-03-30T04:29:12.111Z,1018.76
2017-03-30T04:29:52.737Z,1018.76
2017-03-30T04:30:33.407Z,1018.8
2017-03-30T04:31:13.999Z,1018.75
2017-03-30T04:31:54.613Z,1018.75
2017-03-30T04:32:35.261Z,1018.77
2017-03-30T04:33:15.845Z,1018.74
2017-03-30T04:33:56.464Z,1018.73
2017-03-30T04:34:37.122Z,1018.75
2017-03-30T04:35:17.775Z,1018.71
2017-03-30T04:35:58.340Z,1018.76
2017-03-30T04:36:38.958Z,1018.73
2017-03-30T04:37:19.629Z,1018.69
2017-03-30T04:38:00.281Z,1018.67
2017-03-30T04:38:40.933Z,1018.71
2017-03-30T04:39:21.588Z,1018.7
2017-03-30T04:40:02.182Z,1018.71
2017-03-30T04:40:42.786Z,1018.7
2017-03-30T04:41:23.442Z,1018.68
2017-03-30T04:42:04.025Z,1018.69
2017-03-30T04:42:45.607Z,1018.7
2017-03-30T04:43:28.200Z,1018.68
2017-03-30T04:44:08.820Z,1018.68
2017-03-30T04:44:49.470Z,1018.67
2017-03-30T04:45:30.229Z,1018.63
2017-03-30T04:46:10.882Z,1018.66
2017-03-30T04:46:51.532Z,1018.68
2017-03-30T04:47:32.186Z,1018.67
2017-03-30T04:48:12.761Z,1018.65
2017-03-30T04:48:53.452Z,1018.65
2017-03-30T04:49:34.177Z,1018.67
2017-03-30T04:50:14.798Z,1018.67
2017-03-30T04:50:55.353Z,1018.66
2017-03-30T04:51:39.130Z,1018.69
2017-03-30T04:52:20.237Z,1018.68
2017-03-30T04:53:00.890Z,1018.65
2017-03-30T04:53:42.347Z,1018.68
2017-03-30T04:54:23.078Z,1018.7
2017-03-30T04:55:03.773Z,1018.67
2017-03-30T04:55:44.336Z,1018.71
2017-03-30T04:56:24.972Z,1018.71
2017-03-30T04:57:05.628Z,1018.74
2017-03-30T04:57:46.187Z,1018.72
2017-03-30T04:58:26.935Z,1018.72
2017-03-30T04:59:07.590Z,1018.72
2017-03-30T04:59:48.189Z,1018.71
2017-03-30T05:00:28.792Z,1018.69
2017-03-30T05:01:09.443Z,1018.72
2017-03-30T05:01:50.009Z,1018.69
2017-03-30T05:02:30.644Z,1018.69
2017-03-30T05:03:11.293Z,1018.72
2017-03-30T05:03:51.883Z,1018.72
2017-03-30T05:04:32.566Z,1018.73
2017-03-30T05:05:13.156Z,1018.7
2017-03-30T05:05:53.807Z,1018.75
2017-03-30T05:06:34.401Z,1018.72
2017-03-30T05:07:15.075Z,1018.74
2017-03-30T05:07:55.671Z,1018.71
2017-03-30T05:08:36.319Z,1018.72
2017-03-30T05:09:16.971Z,1018.73
2017-03-30T05:09:57.626Z,1018.71
2017-03-30T05:10:38.275Z,1018.71
2017-03-30T05:11:18.930Z,1018.7
2017-03-30T05:11:59.582Z,1018.74
2017-03-30T05:12:40.235Z,1018.69
2017-03-30T05:13:20.887Z,1018.7
2017-03-30T05:14:01.540Z,1018.67
2017-03-30T05:14:42.194Z,1018.71
2017-03-30T05:15:22.848Z,1018.75
2017-03-30T05:16:03.499Z,1018.71
2017-03-30T05:16:44.153Z,1018.69
2017-03-30T05:17:24.805Z,1018.69
2017-03-30T05:18:05.459Z,1018.7
2017-03-30T05:18:46.111Z,1018.67
2017-03-30T05:19:26.763Z,1018.73
2017-03-30T05:20:08.442Z,1018.67
2017-03-30T05:20:49.095Z,1018.68
2017-03-30T05:21:29.745Z,1018.7
2017-03-30T05:22:10.401Z,1018.7
2017-03-30T05:22:51.052Z,1018.69
2017-03-30T05:23:31.622Z,1018.69
2017-03-30T05:24:12.253Z,1018.71
2017-03-30T05:24:52.905Z,1018.67
2017-03-30T05:25:33.492Z,1018.69
2017-03-30T05:26:14.124Z,1018.68
2017-03-30T05:26:54.765Z,1018.7
2017-03-30T05:27:35.341Z,1018.67
2017-03-30T05:28:15.968Z,1018.66
2017-03-30T05:28:56.621Z,1018.69
2017-03-30T05:29:37.276Z,1018.64
2017-03-30T05:30:17.925Z,1018.67
2017-03-30T05:30:58.579Z,1018.62
2017-03-30T05:31:39.449Z,1018.6
2017-03-30T05:32:21.754Z,1018.62
2017-03-30T05:33:02.501Z,1018.65
2017-03-30T05:33:43.861Z,1018.65
2017-03-30T05:34:25.056Z,1018.67
2017-03-30T05:35:05.886Z,1018.67
2017-03-30T05:35:46.809Z,1018.69
2017-03-30T05:36:27.614Z,1018.7
2017-03-30T05:37:08.261Z,1018.69
2017-03-30T05:37:48.869Z,1018.65
2017-03-30T05:38:29.479Z,1018.67
2017-03-30T05:39:10.124Z,1018.68
2017-03-30T05:39:50.786Z,1018.65
2017-03-30T05:40:31.426Z,1018.66
2017-03-30T05:41:12.088Z,1018.63
2017-03-30T05:41:52.751Z,1018.66
2017-03-30T05:42:33.395Z,1018.67
2017-03-30T05:43:14.098Z,1018.69
2017-03-30T05:43:54.866Z,1018.67
2017-03-30T05:44:35.667Z,1018.68
2017-03-30T05:45:16.325Z,1018.64
2017-03-30T05:45:57.835Z,1018.7
2017-03-30T05:46:38.474Z,1018.71
2017-03-30T05:47:19.053Z,1018.69
2017-03-30T05:47:59.668Z,1018.67
2017-03-30T05:48:40.281Z,1018.67
2017-03-30T05:49:20.845Z,1018.68
2017-03-30T05:50:01.444Z,1018.7
2017-03-30T05:50:42.044Z,1018.68
2017-03-30T05:51:22.688Z,1018.66
2017-03-30T05:52:03.259Z,1018.66
2017-03-30T05:52:43.864Z,1018.72
2017-03-30T05:53:24.581Z,1018.74
2017-03-30T05:54:05.204Z,1018.69
2017-03-30T05:54:45.847Z,1018.7
2017-03-30T05:55:26.520Z,1018.71
2017-03-30T05:56:07.193Z,1018.74
2017-03-30T05:56:47.821Z,1018.75
2017-03-30T05:57:28.461Z,1018.78
2017-03-30T05:58:09.115Z,1018.74
2017-03-30T05:58:49.773Z,1018.76
2017-03-30T05:59:30.352Z,1018.79
2017-03-30T06:00:11.029Z,1018.81
2017-03-30T06:00:51.624Z,1018.78
2017-03-30T06:01:32.284Z,1018.78
2017-03-30T06:02:12.886Z,1018.76
2017-03-30T06:02:53.555Z,1018.77
2017-03-30T06:03:34.122Z,1018.76
2017-03-30T06:04:14.798Z,1018.73
2017-03-30T06:04:55.447Z,1018.75
2017-03-30T06:05:36.118Z,1018.75
2017-03-30T06:06:16.750Z,1018.79
2017-03-30T06:06:58.428Z,1018.75
2017-03-30T06:07:39.093Z,1018.76
2017-03-30T06:08:19.736Z,1018.77
2017-03-30T06:09:05.923Z,1018.79
2017-03-30T06:09:46.581Z,1018.77
2017-03-30T06:10:27.230Z,1018.77
2017-03-30T06:11:07.879Z,1018.76
2017-03-30T06:11:48.527Z,1018.75
2017-03-30T06:12:30.213Z,1018.78
2017-03-30T06:13:10.962Z,1018.77
2017-03-30T06:13:51.712Z,1018.77
2017-03-30T06:14:32.370Z,1018.8
2017-03-30T06:15:13.014Z,1018.79
2017-03-30T06:15:53.673Z,1018.81
2017-03-30T06:16:34.330Z,1018.81
2017-03-30T06:17:15.057Z,1018.83
2017-03-30T06:17:55.627Z,1018.81
2017-03-30T06:18:36.242Z,1018.8
2017-03-30T06:19:16.965Z,1018.83
2017-03-30T06:19:58.624Z,1018.83
2017-03-30T06:20:39.314Z,1018.83
2017-03-30T06:21:19.928Z,1018.84
2017-03-30T06:22:00.574Z,1018.83
2017-03-30T06:22:41.159Z,1018.84
2017-03-30T06:23:21.783Z,1018.87
2017-03-30T06:24:02.428Z,1018.87
2017-03-30T06:24:43.041Z,1018.84
2017-03-30T06:25:23.808Z,1018.86
2017-03-30T06:26:04.488Z,1018.87
2017-03-30T06:26:45.081Z,1018.87
2017-03-30T06:27:25.702Z,1018.9
2017-03-30T06:28:06.357Z,1018.9
2017-03-30T06:28:47.006Z,1018.85
2017-03-30T06:29:27.606Z,1018.84
2017-03-30T06:30:08.320Z,1018.84
2017-03-30T06:30:48.967Z,1018.83
2017-03-30T06:31:29.613Z,1018.89
2017-03-30T06:32:10.246Z,1018.84
2017-03-30T06:32:50.932Z,1018.88
2017-03-30T06:33:31.596Z,1018.84
2017-03-30T06:34:12.232Z,1018.87
2017-03-30T06:34:52.822Z,1018.88
2017-03-30T06:35:33.606Z,1018.89
2017-03-30T06:36:14.291Z,1018.87
2017-03-30T06:36:55.042Z,1018.88
2017-03-30T06:37:35.651Z,1018.89
2017-03-30T06:38:17.182Z,1018.89
2017-03-30T06:38:57.891Z,1018.85
2017-03-30T06:39:38.568Z,1018.89
2017-03-30T06:40:19.190Z,1018.9
2017-03-30T06:40:59.849Z,1018.87
2017-03-30T06:41:40.500Z,1018.9
2017-03-30T06:42:22.158Z,1018.87
2017-03-30T06:43:02.827Z,1018.91
2017-03-30T06:43:43.463Z,1018.93
2017-03-30T06:44:24.163Z,1018.9
2017-03-30T06:45:04.895Z,1018.93
2017-03-30T06:45:45.572Z,1018.91
2017-03-30T06:46:26.205Z,1018.91
2017-03-30T06:47:06.831Z,1018.94
2017-03-30T06:47:47.507Z,1018.94
2017-03-30T06:48:28.186Z,1018.94
2017-03-30T06:49:08.842Z,1018.95
2017-03-30T06:49:49.410Z,1018.98
2017-03-30T06:50:30.038Z,1018.99
2017-03-30T06:51:10.706Z,1018.97
2017-03-30T06:51:51.572Z,1018.96
2017-03-30T06:52:32.225Z,1018.95
2017-03-30T06:53:12.963Z,1018.96
2017-03-30T06:53:53.531Z,1018.94
2017-03-30T06:54:34.217Z,1018.95
2017-03-30T06:55:14.925Z,1018.93
2017-03-30T06:55:55.506Z,1018.98
2017-03-30T06:56:36.130Z,1018.97
2017-03-30T06:57:18.727Z,1018.95
2017-03-30T06:57:59.338Z,1018.95
2017-03-30T06:58:39.928Z,1018.95
2017-03-30T06:59:20.509Z,1018.96
2017-03-30T07:00:01.229Z,1018.94
2017-03-30T07:00:43.120Z,1018.93
2017-03-30T07:01:23.773Z,1018.97
2017-03-30T07:02:04.422Z,1018.94
2017-03-30T07:02:45.078Z,1018.95
2017-03-30T07:03:25.645Z,1018.95
2017-03-30T07:04:06.359Z,1018.98
2017-03-30T07:04:47.079Z,1018.95
2017-03-30T07:05:27.687Z,1018.93
2017-03-30T07:06:08.260Z,1018.95
2017-03-30T07:06:49.000Z,1018.97
2017-03-30T07:07:29.674Z,1018.91
2017-03-30T07:08:11.331Z,1018.95
2017-03-30T07:08:51.977Z,1018.93
2017-03-30T07:09:32.678Z,1018.91
2017-03-30T07:10:13.279Z,1018.9
2017-03-30T07:10:53.937Z,1018.9
2017-03-30T07:11:34.590Z,1018.9
2017-03-30T07:12:15.237Z,1018.87
2017-03-30T07:12:55.899Z,1018.88
2017-03-30T07:13:36.504Z,1018.84
2017-03-30T07:14:17.186Z,1018.87
2017-03-30T07:14:58.874Z,1018.83
2017-03-30T07:15:39.532Z,1018.86
2017-03-30T07:16:20.107Z,1018.84
2017-03-30T07:17:00.800Z,1018.87
2017-03-30T07:17:41.483Z,1018.87
2017-03-30T07:18:22.123Z,1018.86
2017-03-30T07:19:02.798Z,1018.87
2017-03-30T07:19:43.402Z,1018.89
2017-03-30T07:20:24.031Z,1018.88
2017-03-30T07:21:04.659Z,1018.88
2017-03-30T07:21:45.277Z,1018.86
2017-03-30T07:22:25.945Z,1018.88
2017-03-30T07:23:06.642Z,1018.85
2017-03-30T07:23:47.270Z,1018.85
2017-03-30T07:24:27.869Z,1018.86
2017-03-30T07:25:08.459Z,1018.88
2017-03-30T07:25:49.118Z,1018.87
2017-03-30T07:26:29.722Z,1018.84
2017-03-30T07:27:10.431Z,1018.87
2017-03-30T07:27:51.083Z,1018.89
2017-03-30T07:28:31.702Z,1018.9
2017-03-30T07:29:12.493Z,1018.88
2017-03-30T07:29:53.147Z,1018.84
2017-03-30T07:30:33.742Z,1018.89
2017-03-30T07:31:14.296Z,1018.87
2017-03-30T07:31:54.889Z,1018.87
2017-03-30T07:32:35.506Z,1018.91
2017-03-30T07:33:18.127Z,1018.89
2017-03-30T07:33:58.700Z,1018.95
2017-03-30T07:34:39.303Z,1018.87
2017-03-30T07:35:19.860Z,1018.92
2017-03-30T07:36:01.471Z,1018.91
2017-03-30T07:36:42.044Z,1018.88
2017-03-30T07:37:22.626Z,1018.89
2017-03-30T07:38:03.216Z,1018.94
2017-03-30T07:38:43.773Z,1018.94
2017-03-30T07:39:24.332Z,1018.95
2017-03-30T07:40:04.929Z,1018.96
2017-03-30T07:40:46.486Z,1018.97
2017-03-30T07:41:27.062Z,1018.95
2017-03-30T07:42:07.664Z,1018.97
2017-03-30T07:42:48.207Z,1018.98
2017-03-30T07:43:28.777Z,1018.94
2017-03-30T07:44:09.411Z,1018.97
2017-03-30T07:44:50.015Z,1018.97
2017-03-30T07:45:30.593Z,1018.99
2017-03-30T07:46:11.182Z,1018.98
2017-03-30T07:46:51.746Z,1018.98
2017-03-30T07:47:32.355Z,1019.02
2017-03-30T07:48:12.944Z,1019
2017-03-30T07:48:53.547Z,1019.05
2017-03-30T07:49:36.791Z,1019.05
2017-03-30T07:50:17.324Z,1019.02
2017-03-30T07:50:57.903Z,1019.08
2017-03-30T07:51:38.489Z,1019.08
2017-03-30T07:52:19.072Z,1019.07
2017-03-30T07:52:59.650Z,1019.07
2017-03-30T07:53:40.244Z,1019.09
2017-03-30T07:54:20.840Z,1019.07
2017-03-30T07:55:01.416Z,1019.06
2017-03-30T07:55:41.997Z,1019.07
2017-03-30T07:56:22.926Z,1019.09
2017-03-30T07:57:03.563Z,1019.05
2017-03-30T07:57:44.150Z,1019.08
2017-03-30T07:58:24.815Z,1019.11
2017-03-30T07:59:05.362Z,1019.08
2017-03-30T07:59:45.929Z,1019.07
2017-03-30T08:00:26.546Z,1019.08
2017-03-30T08:01:07.221Z,1019.09
2017-03-30T08:01:47.796Z,1019.06
2017-03-30T08:02:28.379Z,1019.08
2017-03-30T08:03:08.974Z,1019.03
2017-03-30T08:03:49.564Z,1019.03
2017-03-30T08:04:30.157Z,1019.04
2017-03-30T08:05:10.764Z,1019
2017-03-30T08:05:51.478Z,1018.99
2017-03-30T08:06:32.043Z,1018.97
2017-03-30T08:07:12.626Z,1018.95
2017-03-30T08:07:53.212Z,1018.94
2017-03-30T08:08:33.807Z,1018.98
2017-03-30T08:09:14.401Z,1018.94
2017-03-30T08:09:54.969Z,1018.98
2017-03-30T08:10:35.583Z,1018.94
2017-03-30T08:11:16.194Z,1018.94
2017-03-30T08:11:56.755Z,1018.96
2017-03-30T08:12:37.326Z,1018.99
2017-03-30T08:13:17.906Z,1018.95
2017-03-30T08:13:58.518Z,1018.98